sensor_id;sensor_type;location;lat;lon;timestamp;P1;durP1;ratioP1;P2;durP2;ratioP2
25049;SDS011;13046;49.814;9.918;2023-01-26T00:01:25;49.25;;;28.98;;
25049;SDS011;13046;49.814;9.918;2023-01-26T00:03:53;57.47;;;31.02;;
25049;SDS011;13046;49.814;9.918;2023-01-26T00:06:19;58.85;;;32.70;;
25049;SDS011;13046;49.814;9.918;2023-01-26T00:08:47;55.25;;;29.45;;
25049;SDS011;13046;49.814;9.918;2023-01-26T00:11:14;50.60;;;28.73;;
25049;SDS011;13046;49.814;9.918;2023-01-26T00:13:41;53.25;;;28.75;;
25049;SDS011;13046;49.814;9.918;2023-01-26T00:16:08;58.03;;;28.55;;
25049;SDS011;13046;49.814;9.918;2023-01-26T00:18:35;53.65;;;29.02;;
25049;SDS011;13046;49.814;9.918;2023-01-26T00:21:01;48.38;;;29.17;;
25049;SDS011;13046;49.814;9.918;2023-01-26T00:23:28;51.28;;;29.00;;
25049;SDS011;13046;49.814;9.918;2023-01-26T00:25:54;53.78;;;28.98;;
25049;SDS011;13046;49.814;9.918;2023-01-26T00:28:20;50.63;;;28.88;;
25049;SDS011;13046;49.814;9.918;2023-01-26T00:30:46;53.35;;;29.42;;
25049;SDS011;13046;49.814;9.918;2023-01-26T00:33:13;51.28;;;29.35;;
25049;SDS011;13046;49.814;9.918;2023-01-26T00:35:39;62.42;;;32.95;;
25049;SDS011;13046;49.814;9.918;2023-01-26T00:38:12;62.60;;;32.28;;
25049;SDS011;13046;49.814;9.918;2023-01-26T00:40:39;58.50;;;29.92;;
25049;SDS011;13046;49.814;9.918;2023-01-26T00:43:05;61.03;;;29.80;;
25049;SDS011;13046;49.814;9.918;2023-01-26T00:45:32;56.28;;;30.80;;
25049;SDS011;13046;49.814;9.918;2023-01-26T00:47:58;56.45;;;29.00;;
25049;SDS011;13046;49.814;9.918;2023-01-26T00:50:24;56.35;;;29.63;;
25049;SDS011;13046;49.814;9.918;2023-01-26T00:52:50;58.95;;;32.58;;
25049;SDS011;13046;49.814;9.918;2023-01-26T00:55:18;53.50;;;30.95;;
25049;SDS011;13046;49.814;9.918;2023-01-26T00:57:44;54.95;;;28.73;;
25049;SDS011;13046;49.814;9.918;2023-01-26T01:00:10;55.55;;;29.38;;
25049;SDS011;13046;49.814;9.918;2023-01-26T01:02:42;60.38;;;31.60;;
25049;SDS011;13046;49.814;9.918;2023-01-26T01:05:09;58.22;;;30.52;;
25049;SDS011;13046;49.814;9.918;2023-01-26T01:07:35;63.42;;;31.10;;
25049;SDS011;13046;49.814;9.918;2023-01-26T01:10:01;54.47;;;30.05;;
25049;SDS011;13046;49.814;9.918;2023-01-26T01:12:27;54.45;;;29.60;;
25049;SDS011;13046;49.814;9.918;2023-01-26T01:14:53;60.15;;;32.47;;
25049;SDS011;13046;49.814;9.918;2023-01-26T01:17:19;58.08;;;30.30;;
25049;SDS011;13046;49.814;9.918;2023-01-26T01:19:45;53.17;;;29.10;;
25049;SDS011;13046;49.814;9.918;2023-01-26T01:22:11;52.67;;;29.73;;
25049;SDS011;13046;49.814;9.918;2023-01-26T01:24:37;61.38;;;30.30;;
25049;SDS011;13046;49.814;9.918;2023-01-26T01:27:03;51.88;;;26.60;;
25049;SDS011;13046;49.814;9.918;2023-01-26T01:29:29;59.13;;;30.27;;
25049;SDS011;13046;49.814;9.918;2023-01-26T01:31:55;54.05;;;29.55;;
25049;SDS011;13046;49.814;9.918;2023-01-26T01:34:21;56.00;;;30.52;;
25049;SDS011;13046;49.814;9.918;2023-01-26T01:36:47;52.13;;;30.38;;
25049;SDS011;13046;49.814;9.918;2023-01-26T01:39:13;56.50;;;29.90;;
25049;SDS011;13046;49.814;9.918;2023-01-26T01:41:39;55.22;;;29.08;;
25049;SDS011;13046;49.814;9.918;2023-01-26T01:44:19;58.08;;;29.58;;
25049;SDS011;13046;49.814;9.918;2023-01-26T01:49:27;51.65;;;28.27;;
25049;SDS011;13046;49.814;9.918;2023-01-26T01:51:56;56.35;;;30.75;;
25049;SDS011;13046;49.814;9.918;2023-01-26T01:54:29;52.95;;;28.25;;
25049;SDS011;13046;49.814;9.918;2023-01-26T01:56:57;57.58;;;30.83;;
25049;SDS011;13046;49.814;9.918;2023-01-26T01:59:25;51.97;;;29.65;;
25049;SDS011;13046;49.814;9.918;2023-01-26T02:01:52;59.28;;;30.90;;
25049;SDS011;13046;49.814;9.918;2023-01-26T02:04:18;62.80;;;31.55;;
25049;SDS011;13046;49.814;9.918;2023-01-26T02:06:49;49.05;;;29.88;;
25049;SDS011;13046;49.814;9.918;2023-01-26T02:09:16;55.95;;;30.20;;
25049;SDS011;13046;49.814;9.918;2023-01-26T02:12:01;54.22;;;27.27;;
25049;SDS011;13046;49.814;9.918;2023-01-26T02:14:28;57.17;;;30.42;;
25049;SDS011;13046;49.814;9.918;2023-01-26T02:16:54;57.15;;;31.38;;
25049;SDS011;13046;49.814;9.918;2023-01-26T02:19:24;66.30;;;34.33;;
25049;SDS011;13046;49.814;9.918;2023-01-26T02:21:51;59.88;;;30.33;;
25049;SDS011;13046;49.814;9.918;2023-01-26T02:24:20;55.00;;;29.25;;
25049;SDS011;13046;49.814;9.918;2023-01-26T02:26:48;54.72;;;29.65;;
25049;SDS011;13046;49.814;9.918;2023-01-26T02:29:14;52.53;;;29.25;;
25049;SDS011;13046;49.814;9.918;2023-01-26T02:31:42;61.28;;;30.60;;
25049;SDS011;13046;49.814;9.918;2023-01-26T02:34:08;61.88;;;31.00;;
25049;SDS011;13046;49.814;9.918;2023-01-26T02:36:35;56.05;;;29.92;;
25049;SDS011;13046;49.814;9.918;2023-01-26T02:41:29;53.42;;;30.48;;
25049;SDS011;13046;49.814;9.918;2023-01-26T02:44:14;56.88;;;30.23;;
25049;SDS011;13046;49.814;9.918;2023-01-26T02:46:40;55.90;;;28.67;;
25049;SDS011;13046;49.814;9.918;2023-01-26T02:49:06;56.28;;;27.48;;
25049;SDS011;13046;49.814;9.918;2023-01-26T02:51:51;53.20;;;28.85;;
25049;SDS011;13046;49.814;9.918;2023-01-26T02:54:17;54.78;;;29.80;;
25049;SDS011;13046;49.814;9.918;2023-01-26T02:57:03;56.00;;;29.08;;
25049;SDS011;13046;49.814;9.918;2023-01-26T02:59:29;53.85;;;28.50;;
25049;SDS011;13046;49.814;9.918;2023-01-26T03:01:55;51.88;;;28.20;;
25049;SDS011;13046;49.814;9.918;2023-01-26T03:04:22;60.08;;;30.58;;
25049;SDS011;13046;49.814;9.918;2023-01-26T03:06:48;54.78;;;28.45;;
25049;SDS011;13046;49.814;9.918;2023-01-26T03:09:14;54.92;;;28.17;;
25049;SDS011;13046;49.814;9.918;2023-01-26T03:11:40;52.38;;;25.73;;
25049;SDS011;13046;49.814;9.918;2023-01-26T03:14:10;59.45;;;28.55;;
25049;SDS011;13046;49.814;9.918;2023-01-26T03:16:36;55.55;;;26.92;;
25049;SDS011;13046;49.814;9.918;2023-01-26T03:19:03;56.25;;;28.08;;
25049;SDS011;13046;49.814;9.918;2023-01-26T03:21:29;44.35;;;24.25;;
25049;SDS011;13046;49.814;9.918;2023-01-26T03:24:14;50.42;;;26.27;;
25049;SDS011;13046;49.814;9.918;2023-01-26T03:27:02;46.15;;;26.17;;
25049;SDS011;13046;49.814;9.918;2023-01-26T03:29:47;51.42;;;25.30;;
25049;SDS011;13046;49.814;9.918;2023-01-26T03:32:13;51.47;;;27.17;;
25049;SDS011;13046;49.814;9.918;2023-01-26T03:34:41;46.00;;;25.92;;
25049;SDS011;13046;49.814;9.918;2023-01-26T03:37:07;47.35;;;26.70;;
25049;SDS011;13046;49.814;9.918;2023-01-26T03:39:44;40.72;;;24.10;;
25049;SDS011;13046;49.814;9.918;2023-01-26T03:42:29;44.85;;;24.83;;
25049;SDS011;13046;49.814;9.918;2023-01-26T03:45:14;42.97;;;22.45;;
25049;SDS011;13046;49.814;9.918;2023-01-26T03:48:06;50.95;;;25.60;;
25049;SDS011;13046;49.814;9.918;2023-01-26T03:50:51;41.20;;;21.75;;
25049;SDS011;13046;49.814;9.918;2023-01-26T03:53:36;44.25;;;23.30;;
25049;SDS011;13046;49.814;9.918;2023-01-26T03:56:21;42.88;;;22.33;;
25049;SDS011;13046;49.814;9.918;2023-01-26T03:58:54;41.88;;;22.13;;
25049;SDS011;13046;49.814;9.918;2023-01-26T04:01:23;44.67;;;23.23;;
25049;SDS011;13046;49.814;9.918;2023-01-26T04:03:53;44.67;;;24.13;;
25049;SDS011;13046;49.814;9.918;2023-01-26T04:06:39;42.72;;;23.30;;
25049;SDS011;13046;49.814;9.918;2023-01-26T04:09:25;41.42;;;23.10;;
25049;SDS011;13046;49.814;9.918;2023-01-26T04:11:51;42.80;;;23.38;;
25049;SDS011;13046;49.814;9.918;2023-01-26T04:14:18;42.70;;;21.95;;
25049;SDS011;13046;49.814;9.918;2023-01-26T04:17:03;34.72;;;20.25;;
25049;SDS011;13046;49.814;9.918;2023-01-26T04:19:48;37.63;;;19.55;;
25049;SDS011;13046;49.814;9.918;2023-01-26T04:22:36;35.10;;;19.13;;
25049;SDS011;13046;49.814;9.918;2023-01-26T04:25:07;36.05;;;19.27;;
25049;SDS011;13046;49.814;9.918;2023-01-26T04:27:34;34.47;;;20.20;;
25049;SDS011;13046;49.814;9.918;2023-01-26T04:30:01;38.65;;;20.02;;
25049;SDS011;13046;49.814;9.918;2023-01-26T04:32:28;39.67;;;19.20;;
25049;SDS011;13046;49.814;9.918;2023-01-26T04:34:54;34.80;;;19.60;;
25049;SDS011;13046;49.814;9.918;2023-01-26T04:37:22;41.80;;;21.67;;
25049;SDS011;13046;49.814;9.918;2023-01-26T04:39:49;39.88;;;20.77;;
25049;SDS011;13046;49.814;9.918;2023-01-26T04:42:17;35.78;;;19.67;;
25049;SDS011;13046;49.814;9.918;2023-01-26T04:44:43;38.83;;;20.05;;
25049;SDS011;13046;49.814;9.918;2023-01-26T04:47:09;36.42;;;19.05;;
25049;SDS011;13046;49.814;9.918;2023-01-26T04:49:36;32.30;;;16.58;;
25049;SDS011;13046;49.814;9.918;2023-01-26T04:52:02;38.10;;;19.58;;
25049;SDS011;13046;49.814;9.918;2023-01-26T04:54:28;31.27;;;16.95;;
25049;SDS011;13046;49.814;9.918;2023-01-26T04:56:54;38.95;;;20.90;;
25049;SDS011;13046;49.814;9.918;2023-01-26T04:59:20;34.53;;;18.95;;
25049;SDS011;13046;49.814;9.918;2023-01-26T05:01:46;29.00;;;16.20;;
25049;SDS011;13046;49.814;9.918;2023-01-26T05:04:13;29.58;;;16.02;;
25049;SDS011;13046;49.814;9.918;2023-01-26T05:06:42;40.53;;;17.88;;
25049;SDS011;13046;49.814;9.918;2023-01-26T05:09:09;30.67;;;16.60;;
25049;SDS011;13046;49.814;9.918;2023-01-26T05:11:37;34.97;;;20.13;;
25049;SDS011;13046;49.814;9.918;2023-01-26T05:14:34;35.38;;;18.75;;
25049;SDS011;13046;49.814;9.918;2023-01-26T05:17:19;33.63;;;19.10;;
25049;SDS011;13046;49.814;9.918;2023-01-26T05:20:05;31.63;;;18.92;;
25049;SDS011;13046;49.814;9.918;2023-01-26T05:22:38;24.45;;;14.85;;
25049;SDS011;13046;49.814;9.918;2023-01-26T05:25:30;42.63;;;17.83;;
25049;SDS011;13046;49.814;9.918;2023-01-26T05:28:01;37.58;;;18.98;;
25049;SDS011;13046;49.814;9.918;2023-01-26T05:30:27;35.33;;;19.65;;
25049;SDS011;13046;49.814;9.918;2023-01-26T05:32:58;41.40;;;20.25;;
25049;SDS011;13046;49.814;9.918;2023-01-26T05:35:25;36.50;;;21.58;;
25049;SDS011;13046;49.814;9.918;2023-01-26T05:37:51;43.10;;;21.30;;
25049;SDS011;13046;49.814;9.918;2023-01-26T05:40:17;66.82;;;30.30;;
25049;SDS011;13046;49.814;9.918;2023-01-26T05:42:43;67.05;;;31.60;;
25049;SDS011;13046;49.814;9.918;2023-01-26T05:45:39;59.90;;;29.38;;
25049;SDS011;13046;49.814;9.918;2023-01-26T05:48:07;50.95;;;24.55;;
25049;SDS011;13046;49.814;9.918;2023-01-26T05:50:33;52.13;;;25.55;;
25049;SDS011;13046;49.814;9.918;2023-01-26T05:53:11;48.85;;;23.20;;
25049;SDS011;13046;49.814;9.918;2023-01-26T05:55:38;46.03;;;23.25;;
25049;SDS011;13046;49.814;9.918;2023-01-26T05:58:04;44.30;;;22.50;;
25049;SDS011;13046;49.814;9.918;2023-01-26T06:00:31;45.22;;;23.55;;
25049;SDS011;13046;49.814;9.918;2023-01-26T06:03:05;46.67;;;22.75;;
25049;SDS011;13046;49.814;9.918;2023-01-26T06:05:31;53.40;;;27.25;;
25049;SDS011;13046;49.814;9.918;2023-01-26T06:07:58;49.05;;;25.08;;
25049;SDS011;13046;49.814;9.918;2023-01-26T06:10:35;53.75;;;26.95;;
25049;SDS011;13046;49.814;9.918;2023-01-26T06:13:16;46.03;;;24.42;;
25049;SDS011;13046;49.814;9.918;2023-01-26T06:15:51;39.45;;;21.02;;
25049;SDS011;13046;49.814;9.918;2023-01-26T06:18:20;44.83;;;23.73;;
25049;SDS011;13046;49.814;9.918;2023-01-26T06:20:51;53.78;;;31.85;;
25049;SDS011;13046;49.814;9.918;2023-01-26T06:23:17;54.00;;;29.92;;
25049;SDS011;13046;49.814;9.918;2023-01-26T06:25:44;36.47;;;19.65;;
25049;SDS011;13046;49.814;9.918;2023-01-26T06:28:11;43.10;;;24.38;;
25049;SDS011;13046;49.814;9.918;2023-01-26T06:30:37;36.53;;;20.02;;
25049;SDS011;13046;49.814;9.918;2023-01-26T06:33:08;37.53;;;21.10;;
25049;SDS011;13046;49.814;9.918;2023-01-26T06:35:36;37.22;;;18.75;;
25049;SDS011;13046;49.814;9.918;2023-01-26T06:38:05;38.17;;;19.45;;
25049;SDS011;13046;49.814;9.918;2023-01-26T06:40:31;37.83;;;19.58;;
25049;SDS011;13046;49.814;9.918;2023-01-26T06:42:57;32.75;;;17.85;;
25049;SDS011;13046;49.814;9.918;2023-01-26T06:45:24;40.30;;;19.38;;
25049;SDS011;13046;49.814;9.918;2023-01-26T06:47:50;35.50;;;17.77;;
25049;SDS011;13046;49.814;9.918;2023-01-26T06:50:18;39.10;;;18.13;;
25049;SDS011;13046;49.814;9.918;2023-01-26T06:52:46;38.22;;;18.17;;
25049;SDS011;13046;49.814;9.918;2023-01-26T06:55:33;43.45;;;22.00;;
25049;SDS011;13046;49.814;9.918;2023-01-26T06:58:20;41.00;;;20.33;;
25049;SDS011;13046;49.814;9.918;2023-01-26T07:01:19;38.60;;;20.55;;
25049;SDS011;13046;49.814;9.918;2023-01-26T07:06:11;39.88;;;21.75;;
25049;SDS011;13046;49.814;9.918;2023-01-26T07:08:37;39.90;;;20.13;;
25049;SDS011;13046;49.814;9.918;2023-01-26T07:11:03;40.15;;;19.35;;
25049;SDS011;13046;49.814;9.918;2023-01-26T07:13:30;43.70;;;21.63;;
25049;SDS011;13046;49.814;9.918;2023-01-26T07:15:59;40.05;;;19.98;;
25049;SDS011;13046;49.814;9.918;2023-01-26T07:18:26;51.00;;;30.42;;
25049;SDS011;13046;49.814;9.918;2023-01-26T07:20:52;43.75;;;24.35;;
25049;SDS011;13046;49.814;9.918;2023-01-26T07:23:18;42.22;;;22.05;;
25049;SDS011;13046;49.814;9.918;2023-01-26T07:25:44;40.50;;;20.70;;
25049;SDS011;13046;49.814;9.918;2023-01-26T07:28:10;42.20;;;20.23;;
25049;SDS011;13046;49.814;9.918;2023-01-26T07:30:36;41.90;;;22.35;;
25049;SDS011;13046;49.814;9.918;2023-01-26T07:33:02;43.35;;;20.08;;
25049;SDS011;13046;49.814;9.918;2023-01-26T07:35:28;42.83;;;19.98;;
25049;SDS011;13046;49.814;9.918;2023-01-26T07:37:54;44.92;;;20.15;;
25049;SDS011;13046;49.814;9.918;2023-01-26T07:40:22;40.60;;;20.23;;
25049;SDS011;13046;49.814;9.918;2023-01-26T07:42:48;44.75;;;21.50;;
25049;SDS011;13046;49.814;9.918;2023-01-26T07:45:19;36.63;;;18.00;;
25049;SDS011;13046;49.814;9.918;2023-01-26T07:47:45;40.47;;;19.02;;
25049;SDS011;13046;49.814;9.918;2023-01-26T07:50:12;39.40;;;19.27;;
25049;SDS011;13046;49.814;9.918;2023-01-26T07:52:38;44.90;;;21.92;;
25049;SDS011;13046;49.814;9.918;2023-01-26T07:55:04;45.80;;;22.75;;
25049;SDS011;13046;49.814;9.918;2023-01-26T07:57:30;46.85;;;22.90;;
25049;SDS011;13046;49.814;9.918;2023-01-26T07:59:57;49.55;;;24.20;;
25049;SDS011;13046;49.814;9.918;2023-01-26T08:02:23;50.20;;;22.15;;
25049;SDS011;13046;49.814;9.918;2023-01-26T08:04:50;42.53;;;19.55;;
25049;SDS011;13046;49.814;9.918;2023-01-26T08:07:16;31.40;;;15.90;;
25049;SDS011;13046;49.814;9.918;2023-01-26T08:09:42;36.72;;;17.98;;
25049;SDS011;13046;49.814;9.918;2023-01-26T08:12:08;36.72;;;18.13;;
25049;SDS011;13046;49.814;9.918;2023-01-26T08:14:34;36.78;;;17.52;;
25049;SDS011;13046;49.814;9.918;2023-01-26T08:17:00;33.45;;;17.38;;
25049;SDS011;13046;49.814;9.918;2023-01-26T08:19:26;38.10;;;17.23;;
25049;SDS011;13046;49.814;9.918;2023-01-26T08:21:52;30.92;;;15.02;;
25049;SDS011;13046;49.814;9.918;2023-01-26T08:24:18;36.58;;;18.20;;
25049;SDS011;13046;49.814;9.918;2023-01-26T08:26:44;35.17;;;17.52;;
25049;SDS011;13046;49.814;9.918;2023-01-26T08:29:10;28.80;;;14.45;;
25049;SDS011;13046;49.814;9.918;2023-01-26T08:31:37;33.53;;;14.23;;
25049;SDS011;13046;49.814;9.918;2023-01-26T08:34:03;30.73;;;14.98;;
25049;SDS011;13046;49.814;9.918;2023-01-26T08:36:29;33.00;;;16.13;;
25049;SDS011;13046;49.814;9.918;2023-01-26T08:38:55;37.80;;;17.65;;
25049;SDS011;13046;49.814;9.918;2023-01-26T08:41:21;31.98;;;16.20;;
25049;SDS011;13046;49.814;9.918;2023-01-26T08:43:47;28.75;;;15.93;;
25049;SDS011;13046;49.814;9.918;2023-01-26T08:46:13;29.20;;;14.48;;
25049;SDS011;13046;49.814;9.918;2023-01-26T08:48:39;24.35;;;13.18;;
25049;SDS011;13046;49.814;9.918;2023-01-26T08:51:06;23.15;;;12.77;;
25049;SDS011;13046;49.814;9.918;2023-01-26T08:53:33;29.20;;;13.35;;
25049;SDS011;13046;49.814;9.918;2023-01-26T08:56:00;28.52;;;16.20;;
25049;SDS011;13046;49.814;9.918;2023-01-26T08:58:27;28.50;;;14.32;;
25049;SDS011;13046;49.814;9.918;2023-01-26T09:00:53;27.92;;;13.90;;
25049;SDS011;13046;49.814;9.918;2023-01-26T09:03:19;27.45;;;13.50;;
25049;SDS011;13046;49.814;9.918;2023-01-26T09:05:46;21.67;;;11.93;;
25049;SDS011;13046;49.814;9.918;2023-01-26T09:08:12;23.50;;;12.60;;
25049;SDS011;13046;49.814;9.918;2023-01-26T09:10:38;20.48;;;11.73;;
25049;SDS011;13046;49.814;9.918;2023-01-26T09:13:04;23.20;;;12.27;;
25049;SDS011;13046;49.814;9.918;2023-01-26T09:15:30;23.52;;;11.75;;
25049;SDS011;13046;49.814;9.918;2023-01-26T09:17:56;20.95;;;11.88;;
25049;SDS011;13046;49.814;9.918;2023-01-26T09:20:22;23.15;;;12.35;;
25049;SDS011;13046;49.814;9.918;2023-01-26T09:22:48;22.88;;;12.20;;
25049;SDS011;13046;49.814;9.918;2023-01-26T09:25:14;20.10;;;11.55;;
25049;SDS011;13046;49.814;9.918;2023-01-26T09:27:40;21.65;;;11.55;;
25049;SDS011;13046;49.814;9.918;2023-01-26T09:30:07;23.88;;;12.43;;
25049;SDS011;13046;49.814;9.918;2023-01-26T09:32:33;24.73;;;12.70;;
25049;SDS011;13046;49.814;9.918;2023-01-26T09:34:59;23.80;;;12.95;;
25049;SDS011;13046;49.814;9.918;2023-01-26T09:37:25;21.17;;;12.73;;
25049;SDS011;13046;49.814;9.918;2023-01-26T09:39:51;25.15;;;13.35;;
25049;SDS011;13046;49.814;9.918;2023-01-26T09:44:45;19.88;;;12.90;;
25049;SDS011;13046;49.814;9.918;2023-01-26T09:47:16;19.27;;;12.13;;
25049;SDS011;13046;49.814;9.918;2023-01-26T09:50:07;21.50;;;13.38;;
25049;SDS011;13046;49.814;9.918;2023-01-26T09:52:36;16.08;;;9.68;;
25049;SDS011;13046;49.814;9.918;2023-01-26T09:55:07;16.05;;;10.35;;
25049;SDS011;13046;49.814;9.918;2023-01-26T10:00:42;17.58;;;10.98;;
25049;SDS011;13046;49.814;9.918;2023-01-26T10:05:53;18.08;;;10.55;;
25049;SDS011;13046;49.814;9.918;2023-01-26T10:08:41;17.75;;;10.50;;
25049;SDS011;13046;49.814;9.918;2023-01-26T10:11:15;14.43;;;9.38;;
25049;SDS011;13046;49.814;9.918;2023-01-26T10:13:44;13.77;;;9.50;;
25049;SDS011;13046;49.814;9.918;2023-01-26T10:16:13;12.27;;;7.72;;
25049;SDS011;13046;49.814;9.918;2023-01-26T10:18:52;15.30;;;8.70;;
25049;SDS011;13046;49.814;9.918;2023-01-26T10:21:19;12.48;;;8.02;;
25049;SDS011;13046;49.814;9.918;2023-01-26T10:23:47;12.82;;;7.95;;
25049;SDS011;13046;49.814;9.918;2023-01-26T10:26:17;12.02;;;7.95;;
25049;SDS011;13046;49.814;9.918;2023-01-26T10:28:44;9.15;;;7.25;;
25049;SDS011;13046;49.814;9.918;2023-01-26T10:31:18;16.40;;;12.48;;
25049;SDS011;13046;49.814;9.918;2023-01-26T10:33:55;139.02;;;101.07;;
25049;SDS011;13046;49.814;9.918;2023-01-26T10:36:21;19.80;;;13.95;;
25049;SDS011;13046;49.814;9.918;2023-01-26T10:38:48;8.18;;;6.85;;
25049;SDS011;13046;49.814;9.918;2023-01-26T10:51:42;6.57;;;5.38;;
25049;SDS011;13046;49.814;9.918;2023-01-26T10:54:13;6.85;;;5.68;;
25049;SDS011;13046;49.814;9.918;2023-01-26T10:56:43;5.70;;;4.35;;
25049;SDS011;13046;49.814;9.918;2023-01-26T10:59:12;8.82;;;5.03;;
25049;SDS011;13046;49.814;9.918;2023-01-26T11:01:56;8.07;;;5.45;;
25049;SDS011;13046;49.814;9.918;2023-01-26T11:04:23;6.78;;;5.35;;
25049;SDS011;13046;49.814;9.918;2023-01-26T11:06:49;6.95;;;4.90;;
25049;SDS011;13046;49.814;9.918;2023-01-26T11:09:17;8.07;;;5.25;;
25049;SDS011;13046;49.814;9.918;2023-01-26T11:14:38;6.57;;;5.68;;
25049;SDS011;13046;49.814;9.918;2023-01-26T11:17:19;8.50;;;5.72;;
25049;SDS011;13046;49.814;9.918;2023-01-26T11:22:26;7.65;;;5.63;;
25049;SDS011;13046;49.814;9.918;2023-01-26T11:25:05;7.93;;;6.20;;
25049;SDS011;13046;49.814;9.918;2023-01-26T11:27:42;6.88;;;6.03;;
25049;SDS011;13046;49.814;9.918;2023-01-26T11:30:44;7.20;;;5.45;;
25049;SDS011;13046;49.814;9.918;2023-01-26T11:41:00;8.07;;;5.25;;
25049;SDS011;13046;49.814;9.918;2023-01-26T11:43:48;6.53;;;5.90;;
25049;SDS011;13046;49.814;9.918;2023-01-26T11:46:36;8.45;;;6.18;;
25049;SDS011;13046;49.814;9.918;2023-01-26T11:49:10;8.65;;;5.75;;
25049;SDS011;13046;49.814;9.918;2023-01-26T11:57:05;10.73;;;7.97;;
25049;SDS011;13046;49.814;9.918;2023-01-26T11:59:37;8.57;;;5.80;;
25049;SDS011;13046;49.814;9.918;2023-01-26T12:02:11;10.95;;;7.43;;
25049;SDS011;13046;49.814;9.918;2023-01-26T12:04:42;10.13;;;7.88;;
25049;SDS011;13046;49.814;9.918;2023-01-26T12:07:11;9.35;;;7.03;;
25049;SDS011;13046;49.814;9.918;2023-01-26T12:09:46;7.13;;;6.30;;
25049;SDS011;13046;49.814;9.918;2023-01-26T12:15:05;11.60;;;8.15;;
25049;SDS011;13046;49.814;9.918;2023-01-26T12:17:38;9.98;;;7.25;;
25049;SDS011;13046;49.814;9.918;2023-01-26T12:20:17;10.15;;;6.78;;
25049;SDS011;13046;49.814;9.918;2023-01-26T12:22:45;8.32;;;6.55;;
25049;SDS011;13046;49.814;9.918;2023-01-26T12:27:55;11.43;;;7.90;;
25049;SDS011;13046;49.814;9.918;2023-01-26T12:32:50;9.15;;;7.18;;
25049;SDS011;13046;49.814;9.918;2023-01-26T12:35:59;10.20;;;7.10;;
25049;SDS011;13046;49.814;9.918;2023-01-26T12:38:10;11.82;;;8.38;;
25049;SDS011;13046;49.814;9.918;2023-01-26T12:40:51;9.05;;;5.97;;
25049;SDS011;13046;49.814;9.918;2023-01-26T12:44:04;8.98;;;6.60;;
25049;SDS011;13046;49.814;9.918;2023-01-26T12:46:09;11.05;;;7.32;;
25049;SDS011;13046;49.814;9.918;2023-01-26T12:48:39;12.15;;;7.72;;
25049;SDS011;13046;49.814;9.918;2023-01-26T12:51:14;12.57;;;8.55;;
25049;SDS011;13046;49.814;9.918;2023-01-26T12:53:46;13.13;;;6.93;;
25049;SDS011;13046;49.814;9.918;2023-01-26T12:56:18;11.52;;;6.80;;
25049;SDS011;13046;49.814;9.918;2023-01-26T12:58:44;11.25;;;7.07;;
25049;SDS011;13046;49.814;9.918;2023-01-26T13:01:16;10.43;;;7.07;;
25049;SDS011;13046;49.814;9.918;2023-01-26T13:03:43;11.63;;;7.43;;
25049;SDS011;13046;49.814;9.918;2023-01-26T13:11:06;13.68;;;9.77;;
25049;SDS011;13046;49.814;9.918;2023-01-26T13:13:33;12.75;;;9.52;;
25049;SDS011;13046;49.814;9.918;2023-01-26T13:16:36;15.43;;;9.68;;
25049;SDS011;13046;49.814;9.918;2023-01-26T13:18:56;155.32;;;72.68;;
25049;SDS011;13046;49.814;9.918;2023-01-26T13:31:49;27.42;;;17.67;;
25049;SDS011;13046;49.814;9.918;2023-01-26T13:34:18;15.18;;;10.48;;
25049;SDS011;13046;49.814;9.918;2023-01-26T13:36:44;14.77;;;9.38;;
25049;SDS011;13046;49.814;9.918;2023-01-26T13:39:14;15.73;;;11.80;;
25049;SDS011;13046;49.814;9.918;2023-01-26T13:41:44;15.70;;;10.13;;
25049;SDS011;13046;49.814;9.918;2023-01-26T13:44:19;16.67;;;10.20;;
25049;SDS011;13046;49.814;9.918;2023-01-26T13:46:57;13.90;;;8.98;;
25049;SDS011;13046;49.814;9.918;2023-01-26T13:49:26;15.98;;;10.40;;
25049;SDS011;13046;49.814;9.918;2023-01-26T13:51:52;13.40;;;9.55;;
25049;SDS011;13046;49.814;9.918;2023-01-26T13:54:18;15.35;;;10.15;;
25049;SDS011;13046;49.814;9.918;2023-01-26T13:59:26;16.98;;;10.65;;
25049;SDS011;13046;49.814;9.918;2023-01-26T14:01:53;18.42;;;14.02;;
25049;SDS011;13046;49.814;9.918;2023-01-26T14:04:27;20.08;;;11.05;;
25049;SDS011;13046;49.814;9.918;2023-01-26T14:07:12;19.02;;;11.88;;
25049;SDS011;13046;49.814;9.918;2023-01-26T14:09:44;16.15;;;10.48;;
25049;SDS011;13046;49.814;9.918;2023-01-26T14:12:15;19.60;;;13.90;;
25049;SDS011;13046;49.814;9.918;2023-01-26T14:14:46;16.40;;;11.02;;
25049;SDS011;13046;49.814;9.918;2023-01-26T14:17:32;18.15;;;11.30;;
25049;SDS011;13046;49.814;9.918;2023-01-26T14:19:59;16.10;;;9.93;;
25049;SDS011;13046;49.814;9.918;2023-01-26T14:22:27;17.95;;;12.48;;
25049;SDS011;13046;49.814;9.918;2023-01-26T14:24:53;18.02;;;11.18;;
25049;SDS011;13046;49.814;9.918;2023-01-26T14:29:53;17.48;;;10.30;;
25049;SDS011;13046;49.814;9.918;2023-01-26T14:32:19;34.80;;;18.77;;
25049;SDS011;13046;49.814;9.918;2023-01-26T14:34:53;28.10;;;15.68;;
25049;SDS011;13046;49.814;9.918;2023-01-26T14:37:19;44.05;;;23.75;;
25049;SDS011;13046;49.814;9.918;2023-01-26T14:39:45;18.70;;;12.30;;
25049;SDS011;13046;49.814;9.918;2023-01-26T14:42:18;18.63;;;11.60;;
25049;SDS011;13046;49.814;9.918;2023-01-26T14:44:45;21.15;;;11.85;;
25049;SDS011;13046;49.814;9.918;2023-01-26T14:47:14;18.65;;;11.70;;
25049;SDS011;13046;49.814;9.918;2023-01-26T14:54:50;14.70;;;10.18;;
25049;SDS011;13046;49.814;9.918;2023-01-26T14:57:19;24.90;;;15.82;;
25049;SDS011;13046;49.814;9.918;2023-01-26T14:59:47;25.98;;;19.05;;
25049;SDS011;13046;49.814;9.918;2023-01-26T15:02:21;16.17;;;11.40;;
25049;SDS011;13046;49.814;9.918;2023-01-26T15:05:30;15.40;;;11.43;;
25049;SDS011;13046;49.814;9.918;2023-01-26T15:07:40;15.75;;;10.05;;
25049;SDS011;13046;49.814;9.918;2023-01-26T15:15:32;16.90;;;11.10;;
25049;SDS011;13046;49.814;9.918;2023-01-26T15:18:00;15.90;;;10.90;;
25049;SDS011;13046;49.814;9.918;2023-01-26T15:22:52;12.20;;;8.80;;
25049;SDS011;13046;49.814;9.918;2023-01-26T15:25:19;13.35;;;10.40;;
25049;SDS011;13046;49.814;9.918;2023-01-26T15:27:52;13.30;;;9.82;;
25049;SDS011;13046;49.814;9.918;2023-01-26T15:32:45;13.93;;;9.93;;
25049;SDS011;13046;49.814;9.918;2023-01-26T15:37:47;16.55;;;10.85;;
25049;SDS011;13046;49.814;9.918;2023-01-26T15:40:13;16.48;;;10.93;;
25049;SDS011;13046;49.814;9.918;2023-01-26T15:42:39;16.10;;;11.50;;
25049;SDS011;13046;49.814;9.918;2023-01-26T15:45:20;18.13;;;11.82;;
25049;SDS011;13046;49.814;9.918;2023-01-26T15:47:47;13.60;;;10.95;;
25049;SDS011;13046;49.814;9.918;2023-01-26T15:50:13;17.90;;;10.80;;
25049;SDS011;13046;49.814;9.918;2023-01-26T15:52:39;14.88;;;10.60;;
25049;SDS011;13046;49.814;9.918;2023-01-26T15:55:18;17.38;;;11.48;;
25049;SDS011;13046;49.814;9.918;2023-01-26T15:57:45;15.15;;;9.98;;
25049;SDS011;13046;49.814;9.918;2023-01-26T16:00:11;18.13;;;12.02;;
25049;SDS011;13046;49.814;9.918;2023-01-26T16:02:38;19.00;;;13.35;;
25049;SDS011;13046;49.814;9.918;2023-01-26T16:05:04;17.50;;;12.20;;
25049;SDS011;13046;49.814;9.918;2023-01-26T16:07:30;17.83;;;11.65;;
25049;SDS011;13046;49.814;9.918;2023-01-26T16:09:56;16.73;;;11.43;;
25049;SDS011;13046;49.814;9.918;2023-01-26T16:12:22;16.23;;;12.82;;
25049;SDS011;13046;49.814;9.918;2023-01-26T16:14:48;18.05;;;13.52;;